LICR/REG METAR and TAF weather

Enter ICAO airport designator
Station Type Date Time Source
LICR METAR 2019/08/25 06:50 UTC NOAA

LICR 250650Z 34006KT 310V020 CAVOK 29/20 Q1016


Station Type Date Time Source
LICR Decoded METAR 2019/08/25 06:50 UTC NOAA

Station name not available
Aug 25, 2019 - 02:50 AM EDT / 2019.08.25 0650 UTC
Wind: from the NNW (340 degrees) at 7 MPH (6 KT) (direction variable):0
Visibility: greater than 7 mile(s):0
Temperature: 84 F (29 C)
Dew Point: 68 F (20 C)
Relative Humidity: 58%
Pressure (altimeter): 30.00 in. Hg (1016 hPa)
ob: LICR 250650Z 34006KT 310V020 CAVOK 29/20 Q1016
cycle: 7

Station Type Date Time Source
LICR TAF 2019/08/25 06:23 UTC NOAA

TAF LICR 250500Z 2506/2606 VRB06KT 9999 FEW030
BECMG 2509/2511 34014KT PROB40
TEMPO 2514/2518 SHRA
BECMG 2518/2520 VRB05KT

Example: see airport list